Radisson, Canada
Current Conditions -  °F | °C
As of 2:00 AM on Saturday 25 Oct 2014 (Local Time) from CYGL Reporting Station
Broken Clouds Broken Clouds  
Wind Chill: 34°   Ceiling: 2000
Heat Index: 41°   Visibility: 15mi
Dew Point: 30°   Wind: 12mph
Humidity: 65%   Direction: 140°SE
Pressure: 29.53"   Gusts: NA
Location:  53.78°N, 77.62°W
Report Text: CYGL 250600Z 14010KT 15SM BKN020 05/M01 A2953 RMK SC5 SLP008
Loading
Personal Weather Stations






























Interactive Weather Map
Tropical Storm Tracking
New forecast layout! Learn more

10-Day Weather Forecast

Advertisements
Track Severe Weather on mobile